Terminal Aerodrome Forecast
Issued by NWS

Home | Current Version | Previous Version | Text Only | Print | Product List | Glossary Off
Versions: 1 2 3 4 5 6 7 8 9 10 11 12 13 14 15 16 17 18 19

000
FTUS43 KMPX 241721
TAFAXN
TAF
KAXN 241721Z 2418/2518 15018G28KT 6SM BR OVC006
     FM242200 14018G24KT 6SM -RASN BKN015 OVC090
     FM250000 14014G20KT 3SM -RASN BR OVC009
     FM250600 16012KT 4SM BR OVC009
     FM250900 23012KT 6SM BR OVC012
     FM251200 29018G28KT P6SM SCT015 BKN025=

USA.gov is the U.S. government's official web portal to all federal, state and local government web resources and services.